createdAt,value
2023-08-20T00:01:32.284Z,9.63
2023-08-20T00:04:06.225Z,9.77
2023-08-20T00:06:36.645Z,9.82
2023-08-20T00:09:07.791Z,9.57
2023-08-20T00:11:37.327Z,10.57
2023-08-20T00:14:07.247Z,11.88
2023-08-20T00:16:37.709Z,11.85
2023-08-20T00:19:10.885Z,12.45
2023-08-20T00:21:45.649Z,11.55
2023-08-20T00:24:16.692Z,11.02
2023-08-20T00:26:46.905Z,10.95
2023-08-20T00:29:16.482Z,10.80
2023-08-20T00:31:46.099Z,10.15
2023-08-20T00:34:18.557Z,10.40
2023-08-20T00:39:17.467Z,12.00
2023-08-20T00:41:47.027Z,10.57
2023-08-20T00:44:16.597Z,9.88
2023-08-20T00:46:46.213Z,10.15
2023-08-20T00:49:18.577Z,8.25
2023-08-20T00:51:49.425Z,8.43
2023-08-20T00:54:19.390Z,7.55
2023-08-20T00:56:49.130Z,7.40
2023-08-20T00:59:19.110Z,6.80
2023-08-20T01:01:48.775Z,6.18
2023-08-20T01:04:21.245Z,5.88
2023-08-20T01:09:34.623Z,5.20
2023-08-20T01:12:07.200Z,5.10
2023-08-20T01:14:36.916Z,4.80
2023-08-20T01:17:07.002Z,4.82
2023-08-20T01:19:39.572Z,5.00
2023-08-20T01:22:21.681Z,4.68
2023-08-20T01:24:59.932Z,4.72
2023-08-20T01:27:47.868Z,4.45
2023-08-20T01:30:21.844Z,4.47
2023-08-20T01:32:55.820Z,4.10
2023-08-20T01:35:29.108Z,4.10
2023-08-20T01:38:05.931Z,4.32
2023-08-20T01:40:35.772Z,3.92
2023-08-20T01:43:05.330Z,3.97
2023-08-20T01:45:37.656Z,4.47
2023-08-20T01:48:07.812Z,3.90
2023-08-20T01:50:39.268Z,4.43
2023-08-20T01:53:08.858Z,5.07
2023-08-20T01:55:39.370Z,4.25
2023-08-20T01:58:08.935Z,4.97
2023-08-20T02:00:41.155Z,4.72
2023-08-20T02:03:11.257Z,5.25
2023-08-20T02:05:41.299Z,4.30
2023-08-20T02:08:12.669Z,4.57
2023-08-20T02:10:43.031Z,4.68
2023-08-20T02:13:12.589Z,4.38
2023-08-20T02:15:44.735Z,4.65
2023-08-20T02:18:14.319Z,4.97
2023-08-20T02:20:47.170Z,4.90
2023-08-20T02:23:17.008Z,5.47
2023-08-20T02:25:47.764Z,4.85
2023-08-20T02:28:17.380Z,4.60
2023-08-20T02:30:50.447Z,5.00
2023-08-20T02:33:20.076Z,4.88
2023-08-20T02:35:49.615Z,5.47
2023-08-20T02:38:19.183Z,5.53
2023-08-20T02:40:48.824Z,5.55
2023-08-20T02:43:18.375Z,5.72
2023-08-20T02:45:50.567Z,5.55
2023-08-20T02:48:21.546Z,6.05
2023-08-20T02:50:51.140Z,5.20
2023-08-20T02:53:20.725Z,5.75
2023-08-20T02:55:50.741Z,5.97
2023-08-20T02:58:20.496Z,4.93
2023-08-20T03:00:53.881Z,4.65
2023-08-20T03:03:23.864Z,5.00
2023-08-20T03:05:53.470Z,5.07
2023-08-20T03:08:23.211Z,4.30
2023-08-20T03:10:52.978Z,4.65
2023-08-20T03:13:26.294Z,4.70
2023-08-20T03:15:58.428Z,4.85
2023-08-20T03:18:28.195Z,4.45
2023-08-20T03:20:58.791Z,4.00
2023-08-20T03:23:28.499Z,5.00
2023-08-20T03:26:01.474Z,4.22
2023-08-20T03:31:06.044Z,5.30
2023-08-20T03:33:40.087Z,4.47
2023-08-20T03:36:09.817Z,4.53
2023-08-20T03:38:39.370Z,4.80
2023-08-20T03:41:08.990Z,5.30
2023-08-20T03:43:39.342Z,4.43
2023-08-20T03:46:12.115Z,4.47
2023-08-20T03:48:41.808Z,4.60
2023-08-20T03:51:11.420Z,4.45
2023-08-20T03:53:40.968Z,5.10
2023-08-20T03:56:10.680Z,4.75
2023-08-20T03:58:40.231Z,4.20
2023-08-20T04:01:12.792Z,4.53
2023-08-20T04:03:42.401Z,4.72
2023-08-20T04:06:12.013Z,3.90
2023-08-20T04:08:41.587Z,4.47
2023-08-20T04:11:11.132Z,4.70
2023-08-20T04:13:44.874Z,4.43
2023-08-20T04:16:17.571Z,3.95
2023-08-20T04:18:47.153Z,4.55
2023-08-20T04:21:16.727Z,4.43
2023-08-20T04:23:46.274Z,4.45
2023-08-20T04:26:15.916Z,4.78
2023-08-20T04:28:46.064Z,4.53
2023-08-20T04:31:18.310Z,4.78
2023-08-20T04:33:54.333Z,4.05
2023-08-20T04:36:30.616Z,4.07
2023-08-20T04:39:00.187Z,4.47
2023-08-20T04:41:32.978Z,4.03
2023-08-20T04:44:02.537Z,4.07
2023-08-20T04:46:34.874Z,4.10
2023-08-20T04:49:04.560Z,4.18
2023-08-20T04:51:34.138Z,4.90
2023-08-20T04:54:03.742Z,4.13
2023-08-20T04:56:33.351Z,4.30
2023-08-20T04:59:03.033Z,3.97
2023-08-20T05:02:01.133Z,4.13
2023-08-20T05:04:42.967Z,4.90
2023-08-20T05:07:12.536Z,4.97
2023-08-20T05:09:42.136Z,5.38
2023-08-20T05:12:11.992Z,4.72
2023-08-20T05:14:41.616Z,4.53
2023-08-20T05:17:13.820Z,5.15
2023-08-20T05:19:43.376Z,4.57
2023-08-20T05:22:13.135Z,4.47
2023-08-20T05:24:42.988Z,4.22
2023-08-20T05:27:15.610Z,4.60
2023-08-20T05:29:47.654Z,3.78
2023-08-20T05:32:20.905Z,4.45
2023-08-20T05:34:50.577Z,4.53
2023-08-20T05:37:20.256Z,4.57
2023-08-20T05:39:50.105Z,3.90
2023-08-20T05:42:20.615Z,4.72
2023-08-20T05:44:57.038Z,4.93
2023-08-20T05:47:32.955Z,4.07
2023-08-20T05:50:03.452Z,4.82
2023-08-20T05:52:33.205Z,4.40
2023-08-20T05:55:02.924Z,4.10
2023-08-20T05:57:33.874Z,3.42
2023-08-20T06:00:03.496Z,3.78
2023-08-20T06:02:45.440Z,3.80
2023-08-20T06:05:15.221Z,3.88
2023-08-20T06:07:44.798Z,3.97
2023-08-20T06:10:14.629Z,4.00
2023-08-20T06:12:44.222Z,3.88
2023-08-20T06:15:25.403Z,4.05
2023-08-20T06:17:57.584Z,3.80
2023-08-20T06:20:27.188Z,3.95
2023-08-20T06:22:56.742Z,3.70
2023-08-20T06:25:26.398Z,3.67
2023-08-20T06:27:55.957Z,3.65
2023-08-20T06:30:25.511Z,3.45
2023-08-20T06:32:57.942Z,3.78
2023-08-20T06:35:27.596Z,3.75
2023-08-20T06:37:57.156Z,3.38
2023-08-20T06:40:26.738Z,3.90
2023-08-20T06:42:56.296Z,3.58
2023-08-20T06:45:25.891Z,3.00
2023-08-20T06:47:58.862Z,3.15
2023-08-20T06:50:28.484Z,3.42
2023-08-20T06:52:58.052Z,3.10
2023-08-20T06:55:27.631Z,3.58
2023-08-20T06:57:57.177Z,3.45
2023-08-20T07:00:26.878Z,3.53
2023-08-20T07:02:59.083Z,3.25
2023-08-20T07:05:28.864Z,3.42
2023-08-20T07:07:58.460Z,3.65
2023-08-20T07:10:28.100Z,3.58
2023-08-20T07:12:57.651Z,3.63
2023-08-20T07:15:27.239Z,3.42
2023-08-20T07:17:59.422Z,3.78
2023-08-20T07:20:29.049Z,3.33
2023-08-20T07:22:58.623Z,3.60
2023-08-20T07:25:28.504Z,3.28
2023-08-20T07:28:00.611Z,3.33
2023-08-20T07:30:32.464Z,3.28
2023-08-20T07:33:06.478Z,3.15
2023-08-20T07:35:36.879Z,3.40
2023-08-20T07:38:07.031Z,3.58
2023-08-20T07:40:36.599Z,3.22
2023-08-20T07:43:06.279Z,3.42
2023-08-20T07:45:35.871Z,3.22
2023-08-20T07:48:08.986Z,3.20
2023-08-20T07:50:38.683Z,3.10
2023-08-20T07:53:08.302Z,3.13
2023-08-20T07:55:38.181Z,3.10
2023-08-20T07:58:08.020Z,3.00
2023-08-20T08:00:37.596Z,2.75
2023-08-20T08:03:11.023Z,3.20
2023-08-20T08:05:41.026Z,3.80
2023-08-20T08:08:10.885Z,3.30
2023-08-20T08:10:40.476Z,2.92
2023-08-20T08:13:11.483Z,3.42
2023-08-20T08:15:41.470Z,2.83
2023-08-20T08:18:13.807Z,3.30
2023-08-20T08:20:43.558Z,3.47
2023-08-20T08:23:13.230Z,3.53
2023-08-20T08:25:43.817Z,2.83
2023-08-20T08:28:13.461Z,3.17
2023-08-20T08:30:43.782Z,3.30
2023-08-20T08:33:15.971Z,3.08
2023-08-20T08:35:45.581Z,2.97
2023-08-20T08:38:15.174Z,3.10
2023-08-20T08:40:46.534Z,3.17
2023-08-20T08:43:18.512Z,3.50
2023-08-20T08:45:51.689Z,3.20
2023-08-20T08:48:25.294Z,3.30
2023-08-20T08:50:56.090Z,2.85
2023-08-20T08:53:28.726Z,3.08
2023-08-20T08:55:58.686Z,2.90
2023-08-20T08:58:28.244Z,3.45
2023-08-20T09:00:58.066Z,3.42
2023-08-20T09:03:30.309Z,2.97
2023-08-20T09:06:02.496Z,3.28
2023-08-20T09:08:33.427Z,2.90
2023-08-20T09:11:05.765Z,3.13
2023-08-20T09:13:40.179Z,2.97
2023-08-20T09:16:10.951Z,3.08
2023-08-20T09:18:48.925Z,2.92
2023-08-20T09:21:18.459Z,2.30
2023-08-20T09:23:49.688Z,3.08
2023-08-20T09:26:19.248Z,2.50
2023-08-20T09:28:50.191Z,2.78
2023-08-20T09:31:19.856Z,2.95
2023-08-20T09:33:56.370Z,3.13
2023-08-20T09:36:34.634Z,3.25
2023-08-20T09:39:05.141Z,2.50
2023-08-20T09:41:34.845Z,2.65
2023-08-20T09:44:07.809Z,2.95
2023-08-20T09:46:39.274Z,3.33
2023-08-20T09:49:15.227Z,2.70
2023-08-20T09:51:46.364Z,2.80
2023-08-20T09:54:23.443Z,3.05
2023-08-20T09:56:58.237Z,2.70
2023-08-20T09:59:28.391Z,2.60
2023-08-20T10:01:59.632Z,3.60
2023-08-20T10:04:32.918Z,2.63
2023-08-20T10:07:03.049Z,3.00
2023-08-20T10:09:33.171Z,2.88
2023-08-20T10:12:04.471Z,3.22
2023-08-20T10:14:34.077Z,3.03
2023-08-20T10:17:09.534Z,2.80
2023-08-20T10:19:42.610Z,2.97
2023-08-20T10:22:12.685Z,2.70
2023-08-20T10:24:51.065Z,3.00
2023-08-20T10:27:31.477Z,2.75
2023-08-20T10:30:02.633Z,2.80
2023-08-20T10:32:54.532Z,2.85
2023-08-20T10:35:31.538Z,2.63
2023-08-20T10:38:03.338Z,2.92
2023-08-20T10:40:51.293Z,2.95
2023-08-20T10:43:36.598Z,2.90
2023-08-20T10:46:10.865Z,2.22
2023-08-20T10:48:42.473Z,2.83
2023-08-20T10:51:18.693Z,2.75
2023-08-20T10:54:08.056Z,2.55
2023-08-20T10:56:47.889Z,2.83
2023-08-20T10:59:19.259Z,2.63
2023-08-20T11:01:49.759Z,2.30
2023-08-20T11:04:20.620Z,2.47
2023-08-20T11:06:56.575Z,2.53
2023-08-20T11:09:27.182Z,3.08
2023-08-20T11:11:57.108Z,2.25
2023-08-20T11:14:26.798Z,2.88
2023-08-20T11:16:56.624Z,2.20
2023-08-20T11:19:27.446Z,2.50
2023-08-20T11:21:59.658Z,2.60
2023-08-20T11:24:33.553Z,2.50
2023-08-20T11:27:03.245Z,2.85
2023-08-20T11:29:32.837Z,2.70
2023-08-20T11:32:06.736Z,2.97
2023-08-20T11:34:36.689Z,2.58
2023-08-20T11:37:08.921Z,2.80
2023-08-20T11:39:40.586Z,2.53
2023-08-20T11:42:10.337Z,3.00
2023-08-20T11:44:47.355Z,2.38
2023-08-20T11:47:18.159Z,2.42
2023-08-20T11:49:47.967Z,2.60
2023-08-20T11:52:22.965Z,3.50
2023-08-20T11:54:52.595Z,2.78
2023-08-20T11:57:22.404Z,2.83
2023-08-20T11:59:51.968Z,2.70
2023-08-20T12:02:39.264Z,2.85
2023-08-20T12:05:11.053Z,2.58
2023-08-20T12:07:43.328Z,2.95
2023-08-20T12:10:25.933Z,3.17
2023-08-20T12:15:26.002Z,3.22
2023-08-20T12:18:06.201Z,3.33
2023-08-20T12:20:37.991Z,3.20
2023-08-20T12:23:10.746Z,4.00
2023-08-20T12:25:40.545Z,3.28
2023-08-20T12:28:10.369Z,3.03
2023-08-20T12:30:40.362Z,3.35
2023-08-20T12:33:10.396Z,3.47
2023-08-20T12:35:40.036Z,3.63
2023-08-20T12:38:12.751Z,3.25
2023-08-20T12:40:42.460Z,3.55
2023-08-20T12:43:12.078Z,3.15
2023-08-20T12:45:41.786Z,3.72
2023-08-20T12:48:11.329Z,3.60
2023-08-20T12:50:40.960Z,3.95
2023-08-20T12:53:14.179Z,3.15
2023-08-20T12:55:43.779Z,3.45
2023-08-20T12:58:13.324Z,3.08
2023-08-20T13:00:43.269Z,2.92
2023-08-20T13:03:14.210Z,2.83
2023-08-20T13:05:44.548Z,3.50
2023-08-20T13:08:17.499Z,2.72
2023-08-20T13:10:54.353Z,2.95
2023-08-20T13:13:25.354Z,3.22
2023-08-20T13:15:56.036Z,3.38
2023-08-20T13:18:27.647Z,3.40
2023-08-20T13:20:57.232Z,3.40
2023-08-20T13:23:29.400Z,3.15
2023-08-20T13:25:59.055Z,3.03
2023-08-20T13:28:28.700Z,3.60
2023-08-20T13:30:58.402Z,3.28
2023-08-20T13:33:28.031Z,3.33
2023-08-20T13:35:58.677Z,3.00
2023-08-20T13:38:30.867Z,3.70
2023-08-20T13:41:00.482Z,3.38
2023-08-20T13:43:30.138Z,3.88
2023-08-20T13:45:59.723Z,3.90
2023-08-20T13:48:29.343Z,3.50
2023-08-20T13:50:59.025Z,3.53
2023-08-20T13:53:31.260Z,3.47
2023-08-20T13:56:00.962Z,3.17
2023-08-20T13:58:30.558Z,3.92
2023-08-20T14:01:00.353Z,3.80
2023-08-20T14:03:30.691Z,4.03
2023-08-20T14:06:00.270Z,4.05
2023-08-20T14:08:32.471Z,3.67
2023-08-20T14:11:03.506Z,3.58
2023-08-20T14:13:33.410Z,3.47
2023-08-20T14:16:03.557Z,4.30
2023-08-20T14:18:33.218Z,3.03
2023-08-20T14:21:03.925Z,3.53
2023-08-20T14:23:36.278Z,4.00
2023-08-20T14:28:35.248Z,3.53
2023-08-20T14:31:17.876Z,3.40
2023-08-20T14:33:47.511Z,3.53
2023-08-20T14:36:17.190Z,3.60
2023-08-20T14:38:49.346Z,4.13
2023-08-20T14:41:19.010Z,4.00
2023-08-20T14:43:48.592Z,3.90
2023-08-20T14:46:18.198Z,3.65
2023-08-20T14:48:47.782Z,3.65
2023-08-20T14:51:17.484Z,3.33
2023-08-20T14:53:49.668Z,4.15
2023-08-20T14:56:19.272Z,3.45
2023-08-20T14:58:48.949Z,4.15
2023-08-20T15:01:18.948Z,3.40
2023-08-20T15:03:48.627Z,3.80
2023-08-20T15:06:22.638Z,3.70
2023-08-20T15:08:54.853Z,3.55
2023-08-20T15:11:24.524Z,3.75
2023-08-20T15:13:54.145Z,3.70
2023-08-20T15:16:23.898Z,3.53
2023-08-20T15:18:53.544Z,3.47
2023-08-20T15:21:23.228Z,3.55
2023-08-20T15:23:55.724Z,3.53
2023-08-20T15:28:54.660Z,3.88
2023-08-20T15:31:24.376Z,4.20
2023-08-20T15:33:54.558Z,3.83
2023-08-20T15:36:24.581Z,4.00
2023-08-20T15:38:56.812Z,3.95
2023-08-20T15:43:56.024Z,4.05
2023-08-20T15:46:27.093Z,4.00
2023-08-20T15:48:57.142Z,3.90
2023-08-20T15:51:26.843Z,4.00
2023-08-20T15:53:59.416Z,3.85
2023-08-20T15:56:29.425Z,4.15
2023-08-20T15:58:59.229Z,3.88
2023-08-20T16:01:29.512Z,3.53
2023-08-20T16:03:59.348Z,3.85
2023-08-20T16:06:29.154Z,4.03
2023-08-20T16:09:01.429Z,3.90
2023-08-20T16:14:00.757Z,4.00
2023-08-20T16:19:02.632Z,3.95
2023-08-20T16:21:32.263Z,3.67
2023-08-20T16:24:05.491Z,3.75
2023-08-20T16:26:35.686Z,3.80
2023-08-20T16:29:05.456Z,3.53
2023-08-20T16:31:35.568Z,4.03
2023-08-20T16:34:05.216Z,3.85
2023-08-20T16:36:35.451Z,4.00
2023-08-20T16:39:07.743Z,3.42
2023-08-20T16:44:06.966Z,3.45
2023-08-20T16:46:38.637Z,3.88
2023-08-20T16:49:08.321Z,3.80
2023-08-20T16:51:37.984Z,3.72
2023-08-20T16:54:10.465Z,4.00
2023-08-20T16:56:40.187Z,4.07
2023-08-20T16:59:09.815Z,4.00
2023-08-20T17:01:39.464Z,3.75
2023-08-20T17:04:09.225Z,4.40
2023-08-20T17:06:38.867Z,4.60
2023-08-20T17:09:11.133Z,4.40
2023-08-20T17:14:10.674Z,4.40
2023-08-20T17:16:40.880Z,4.60
2023-08-20T17:19:10.568Z,4.13
2023-08-20T17:21:41.928Z,4.93
2023-08-20T17:24:14.135Z,4.30
2023-08-20T17:26:43.919Z,4.78
2023-08-20T17:29:13.622Z,4.20
2023-08-20T17:31:43.937Z,3.92
2023-08-20T17:34:13.552Z,4.10
2023-08-20T17:36:43.170Z,4.13
2023-08-20T17:39:16.716Z,4.00
2023-08-20T17:41:46.579Z,4.40
2023-08-20T17:44:16.215Z,4.47
2023-08-20T17:46:46.938Z,4.43
2023-08-20T17:49:18.188Z,4.20
2023-08-20T17:51:48.093Z,4.38
2023-08-20T17:54:20.517Z,4.00
2023-08-20T17:56:50.117Z,4.78
2023-08-20T17:59:19.765Z,4.25
2023-08-20T18:01:49.418Z,4.60
2023-08-20T18:04:19.115Z,4.50
2023-08-20T18:06:48.701Z,4.55
2023-08-20T18:09:21.130Z,4.22
2023-08-20T18:11:50.715Z,3.85
2023-08-20T18:14:20.401Z,4.47
2023-08-20T18:16:50.199Z,5.25
2023-08-20T18:19:19.828Z,4.57
2023-08-20T18:21:49.868Z,4.55
2023-08-20T18:24:22.096Z,4.30
2023-08-20T18:26:51.680Z,5.50
2023-08-20T18:29:21.224Z,4.70
2023-08-20T18:31:52.158Z,4.28
2023-08-20T18:34:22.037Z,4.32
2023-08-20T18:36:52.021Z,4.80
2023-08-20T18:39:24.172Z,4.43
2023-08-20T18:41:54.225Z,4.60
2023-08-20T18:44:23.923Z,4.40
2023-08-20T18:46:53.602Z,4.93
2023-08-20T18:49:23.236Z,5.65
2023-08-20T18:51:53.083Z,5.20
2023-08-20T18:54:25.371Z,5.72
2023-08-20T18:59:24.340Z,5.53
2023-08-20T19:01:54.228Z,5.78
2023-08-20T19:04:23.801Z,4.75
2023-08-20T19:06:54.174Z,4.50
2023-08-20T19:09:26.313Z,4.28
2023-08-20T19:11:57.316Z,4.18
2023-08-20T19:14:27.110Z,4.47
2023-08-20T19:16:56.690Z,4.30
2023-08-20T19:19:26.285Z,3.15
2023-08-20T19:21:55.926Z,3.90
2023-08-20T19:24:28.153Z,3.30
2023-08-20T19:29:28.366Z,4.80
2023-08-20T19:31:58.018Z,3.80
2023-08-20T19:34:28.167Z,4.20
2023-08-20T19:36:57.849Z,4.30
2023-08-20T19:39:30.004Z,4.70
2023-08-20T19:41:59.573Z,4.47
2023-08-20T19:44:29.152Z,4.25
2023-08-20T19:46:58.706Z,4.50
2023-08-20T19:49:28.286Z,4.20
2023-08-20T19:51:57.813Z,4.20
2023-08-20T19:54:30.079Z,4.70
2023-08-20T19:59:29.079Z,4.55
2023-08-20T20:01:58.714Z,4.72
2023-08-20T20:04:29.542Z,4.88
2023-08-20T20:07:09.429Z,4.30
2023-08-20T20:09:49.244Z,4.50
2023-08-20T20:12:18.864Z,4.50
2023-08-20T20:14:48.574Z,4.65
2023-08-20T20:17:18.198Z,4.60
2023-08-20T20:19:48.363Z,4.82
2023-08-20T20:22:17.967Z,4.45
2023-08-20T20:24:50.837Z,5.00
2023-08-20T20:27:20.438Z,4.75
2023-08-20T20:29:50.031Z,4.75
2023-08-20T20:32:20.444Z,5.05
2023-08-20T20:34:50.001Z,5.03
2023-08-20T20:37:20.031Z,4.97
2023-08-20T20:39:52.163Z,5.50
2023-08-20T20:42:21.740Z,5.15
2023-08-20T20:44:51.798Z,4.68
2023-08-20T20:47:21.501Z,5.07
2023-08-20T20:49:51.174Z,4.80
2023-08-20T20:54:55.614Z,4.82
2023-08-20T20:57:25.419Z,4.75
2023-08-20T20:59:55.245Z,4.95
2023-08-20T21:02:24.889Z,4.97
2023-08-20T21:04:54.486Z,4.63
2023-08-20T21:07:24.042Z,5.07
2023-08-20T21:09:57.028Z,4.60
2023-08-20T21:12:26.779Z,4.90
2023-08-20T21:14:56.343Z,4.63
2023-08-20T21:17:26.034Z,4.93
2023-08-20T21:19:58.661Z,4.50
2023-08-20T21:22:28.877Z,4.70
2023-08-20T21:25:01.080Z,6.13
2023-08-20T21:27:30.686Z,4.35
2023-08-20T21:30:00.358Z,4.68
2023-08-20T21:32:31.770Z,4.47
2023-08-20T21:35:06.679Z,4.32
2023-08-20T21:37:36.326Z,3.75
2023-08-20T21:40:09.798Z,4.57
2023-08-20T21:42:39.650Z,4.25
2023-08-20T21:45:10.670Z,4.28
2023-08-20T21:47:48.121Z,4.25
2023-08-20T21:50:19.052Z,4.30
2023-08-20T21:52:49.037Z,4.72
2023-08-20T21:55:21.396Z,4.22
2023-08-20T21:57:51.020Z,4.47
2023-08-20T22:00:20.778Z,4.63
2023-08-20T22:02:51.637Z,3.83
2023-08-20T22:05:25.629Z,3.85
2023-08-20T22:07:55.330Z,4.28
2023-08-20T22:10:27.890Z,4.75
2023-08-20T22:12:57.632Z,4.30
2023-08-20T22:15:27.379Z,4.10
2023-08-20T22:17:56.990Z,4.30
2023-08-20T22:20:26.663Z,4.07
2023-08-20T22:22:56.726Z,4.18
2023-08-20T22:25:28.913Z,4.45
2023-08-20T22:27:58.498Z,4.35
2023-08-20T22:30:28.092Z,3.88
2023-08-20T22:32:58.136Z,3.60
2023-08-20T22:35:27.831Z,4.22
2023-08-20T22:38:09.334Z,4.43
2023-08-20T22:40:43.510Z,3.15
2023-08-20T22:43:13.287Z,3.42
2023-08-20T22:45:42.884Z,3.58
2023-08-20T22:48:12.496Z,3.58
2023-08-20T22:50:42.148Z,3.17
2023-08-20T22:53:11.757Z,3.08
2023-08-20T22:55:43.932Z,2.80
2023-08-20T22:58:13.523Z,2.45
2023-08-20T23:00:43.205Z,2.40
2023-08-20T23:03:12.854Z,2.85
2023-08-20T23:05:42.519Z,2.67
2023-08-20T23:08:12.087Z,2.13
2023-08-20T23:10:44.252Z,2.47
2023-08-20T23:13:13.882Z,1.98
2023-08-20T23:15:44.990Z,2.47
2023-08-20T23:18:14.774Z,2.30
2023-08-20T23:20:44.385Z,2.10
2023-08-20T23:23:14.071Z,2.20
2023-08-20T23:25:46.747Z,2.72
2023-08-20T23:28:16.353Z,2.58
2023-08-20T23:30:47.082Z,2.55
2023-08-20T23:33:17.206Z,3.00
2023-08-20T23:35:47.136Z,3.10
2023-08-20T23:38:17.109Z,2.95
2023-08-20T23:40:49.297Z,2.60
2023-08-20T23:43:18.924Z,2.58
2023-08-20T23:45:48.468Z,2.92
2023-08-20T23:48:18.058Z,2.58
2023-08-20T23:50:47.656Z,2.85
2023-08-20T23:53:32.146Z,2.67
2023-08-20T23:56:04.378Z,2.85
2023-08-20T23:58:34.034Z,3.70
